createdAt,value
2018-06-30T00:01:02.731Z,17.80
2018-06-30T00:03:07.090Z,17.80
2018-06-30T00:05:15.249Z,17.80
2018-06-30T00:07:20.622Z,17.60
2018-06-30T00:09:24.885Z,17.50
2018-06-30T00:11:29.151Z,17.30
2018-06-30T00:13:33.790Z,17.30
2018-06-30T00:15:38.403Z,17.20
2018-06-30T00:17:42.681Z,17.20
2018-06-30T00:19:47.337Z,17.20
2018-06-30T00:21:51.637Z,17.10
2018-06-30T00:23:55.906Z,17.30
2018-06-30T00:26:00.166Z,17.20
2018-06-30T00:28:04.640Z,17.10
2018-06-30T00:30:08.936Z,17.30
2018-06-30T00:32:13.298Z,17.40
2018-06-30T00:34:17.947Z,17.40
2018-06-30T00:36:22.242Z,17.10
2018-06-30T00:38:26.729Z,17.10
2018-06-30T00:40:30.989Z,17.20
2018-06-30T00:42:35.626Z,17.00
2018-06-30T00:44:39.912Z,17.00
2018-06-30T00:46:44.245Z,17.20
2018-06-30T00:48:48.504Z,17.20
2018-06-30T00:50:53.259Z,17.40
2018-06-30T00:52:57.897Z,17.20
2018-06-30T00:55:02.828Z,17.10
2018-06-30T00:57:07.365Z,17.20
2018-06-30T00:59:11.473Z,17.10
2018-06-30T01:01:15.720Z,17.00
2018-06-30T01:03:19.945Z,16.80
2018-06-30T01:05:24.533Z,17.00
2018-06-30T01:07:28.482Z,17.00
2018-06-30T01:09:33.473Z,16.90
2018-06-30T01:11:37.757Z,17.00
2018-06-30T01:13:42.069Z,16.90
2018-06-30T01:15:46.414Z,17.00
2018-06-30T01:17:50.990Z,17.10
2018-06-30T01:19:55.165Z,17.20
2018-06-30T01:21:59.781Z,17.20
2018-06-30T01:24:04.465Z,17.30
2018-06-30T01:26:08.881Z,17.30
2018-06-30T01:28:13.145Z,17.40
2018-06-30T01:30:17.445Z,17.40
2018-06-30T01:34:26.330Z,17.30
2018-06-30T01:36:30.666Z,17.30
2018-06-30T01:38:34.897Z,17.40
2018-06-30T01:40:39.826Z,17.30
2018-06-30T01:42:44.110Z,17.30
2018-06-30T01:44:49.127Z,17.30
2018-06-30T01:46:53.353Z,17.20
2018-06-30T01:48:57.306Z,17.10
2018-06-30T01:51:01.674Z,17.00
2018-06-30T01:53:05.625Z,17.00
2018-06-30T01:55:10.281Z,17.10
2018-06-30T01:57:14.949Z,16.90
2018-06-30T01:59:19.224Z,16.90
2018-06-30T02:01:23.537Z,16.90
2018-06-30T02:03:28.494Z,16.80
2018-06-30T02:05:32.457Z,16.80
2018-06-30T02:07:36.742Z,16.90
2018-06-30T02:09:40.718Z,16.80
2018-06-30T02:11:44.957Z,16.70
2018-06-30T02:13:49.214Z,16.80
2018-06-30T02:15:53.528Z,16.80
2018-06-30T02:17:57.794Z,16.70
2018-06-30T02:20:02.424Z,16.50
2018-06-30T02:22:06.793Z,16.50
2018-06-30T02:24:11.382Z,16.60
2018-06-30T02:26:15.674Z,16.70
2018-06-30T02:28:19.937Z,16.70
2018-06-30T02:30:24.446Z,16.70
2018-06-30T02:32:28.432Z,16.60
2018-06-30T02:34:32.663Z,16.60
2018-06-30T02:36:36.873Z,16.60
2018-06-30T02:38:41.133Z,16.20
2018-06-30T02:40:45.406Z,16.20
2018-06-30T02:42:50.430Z,16.30
2018-06-30T02:46:58.751Z,16.30
2018-06-30T02:49:03.007Z,16.20
2018-06-30T02:51:07.290Z,16.20
2018-06-30T02:53:11.553Z,16.20
2018-06-30T02:55:16.479Z,16.30
2018-06-30T02:57:20.730Z,16.20
2018-06-30T02:59:25.058Z,16.30
2018-06-30T03:01:29.323Z,16.20
2018-06-30T03:03:33.582Z,16.10
2018-06-30T03:05:37.836Z,16.10
2018-06-30T03:07:42.097Z,16.00
2018-06-30T03:09:46.354Z,16.00
2018-06-30T03:11:50.586Z,15.90
2018-06-30T03:13:55.536Z,15.80
2018-06-30T03:15:59.989Z,15.80
2018-06-30T03:18:03.998Z,15.80
2018-06-30T03:20:08.378Z,15.80
2018-06-30T03:22:12.636Z,15.70
2018-06-30T03:24:16.861Z,15.70
2018-06-30T03:26:20.866Z,15.70
2018-06-30T03:28:25.121Z,15.70
2018-06-30T03:30:29.454Z,15.80
2018-06-30T03:32:33.731Z,15.90
2018-06-30T03:36:41.882Z,15.90
2018-06-30T03:38:46.485Z,15.80
2018-06-30T03:40:50.738Z,15.80
2018-06-30T03:42:54.981Z,15.80
2018-06-30T03:44:59.213Z,15.70
2018-06-30T03:47:03.703Z,15.80
2018-06-30T03:49:08.768Z,15.70
2018-06-30T03:51:13.689Z,15.60
2018-06-30T03:53:17.946Z,15.60
2018-06-30T03:55:22.203Z,15.70
2018-06-30T03:57:26.438Z,15.70
2018-06-30T03:59:30.695Z,15.70
2018-06-30T04:01:35.294Z,15.80
2018-06-30T04:03:39.564Z,15.70
2018-06-30T04:05:43.790Z,15.70
2018-06-30T04:07:48.081Z,15.90
2018-06-30T04:09:52.389Z,16.00
2018-06-30T04:11:56.621Z,16.10
2018-06-30T04:14:01.394Z,16.00
2018-06-30T04:16:05.666Z,15.80
2018-06-30T04:18:09.617Z,15.90
2018-06-30T04:20:14.153Z,16.00
2018-06-30T04:22:18.373Z,15.90
2018-06-30T04:24:22.966Z,15.90
2018-06-30T04:26:27.590Z,16.00
2018-06-30T04:28:31.878Z,16.10
2018-06-30T04:30:36.190Z,16.10
2018-06-30T04:32:40.781Z,16.00
2018-06-30T04:34:45.389Z,16.20
2018-06-30T04:36:49.646Z,16.20
2018-06-30T04:38:54.249Z,16.30
2018-06-30T04:40:58.478Z,16.30
2018-06-30T04:43:02.757Z,16.40
2018-06-30T04:45:07.046Z,16.50
2018-06-30T04:47:12.055Z,16.60
2018-06-30T04:49:16.293Z,16.50
2018-06-30T04:51:21.012Z,16.60
2018-06-30T04:53:24.982Z,16.60
2018-06-30T04:55:29.585Z,16.70
2018-06-30T04:57:33.894Z,16.80
2018-06-30T04:59:38.141Z,16.90
2018-06-30T05:01:42.387Z,16.80
2018-06-30T05:03:46.607Z,16.60
2018-06-30T05:05:50.881Z,16.70
2018-06-30T05:07:55.329Z,16.60
2018-06-30T05:09:59.641Z,16.60
2018-06-30T05:12:03.957Z,16.60
2018-06-30T05:14:08.541Z,16.60
2018-06-30T05:16:12.779Z,16.60
2018-06-30T05:18:17.358Z,16.80
2018-06-30T05:20:21.636Z,16.80
2018-06-30T05:22:26.136Z,16.90
2018-06-30T05:24:30.418Z,16.90
2018-06-30T05:26:35.165Z,16.80
2018-06-30T05:28:39.385Z,16.90
2018-06-30T05:30:43.609Z,16.90
2018-06-30T05:32:48.174Z,17.00
2018-06-30T05:34:53.104Z,17.20
2018-06-30T05:36:57.387Z,17.10
2018-06-30T05:39:01.679Z,17.10
2018-06-30T05:41:06.247Z,17.20
2018-06-30T05:45:14.573Z,17.40
2018-06-30T05:47:19.145Z,17.40
2018-06-30T05:49:23.378Z,17.40
2018-06-30T05:51:28.021Z,17.40
2018-06-30T05:55:36.805Z,17.40
2018-06-30T05:57:41.063Z,17.40
2018-06-30T05:59:45.282Z,17.50
2018-06-30T06:01:49.999Z,17.60
2018-06-30T06:03:54.189Z,17.60
2018-06-30T06:05:58.426Z,17.60
2018-06-30T06:08:03.287Z,17.70
2018-06-30T06:10:07.689Z,17.70
2018-06-30T06:12:12.182Z,17.80
2018-06-30T06:14:16.734Z,17.80
2018-06-30T06:16:20.797Z,17.70
2018-06-30T06:18:25.493Z,17.70
2018-06-30T06:20:29.849Z,17.70
2018-06-30T06:22:34.102Z,17.80
2018-06-30T06:24:38.091Z,17.90
2018-06-30T06:26:42.337Z,17.90
2018-06-30T06:28:46.599Z,18.00
2018-06-30T06:30:50.906Z,18.10
2018-06-30T06:32:55.234Z,18.10
2018-06-30T06:34:59.650Z,18.20
2018-06-30T06:37:03.930Z,18.30
2018-06-30T06:39:09.872Z,18.30
2018-06-30T06:41:14.114Z,18.30
2018-06-30T06:43:18.360Z,18.30
2018-06-30T06:45:22.918Z,18.40
2018-06-30T06:47:28.034Z,18.40
2018-06-30T06:49:32.253Z,18.40
2018-06-30T06:51:36.609Z,18.40
2018-06-30T06:53:41.277Z,18.50
2018-06-30T06:57:49.483Z,18.50
2018-06-30T06:59:53.766Z,18.50
2018-06-30T07:01:58.046Z,18.50
2018-06-30T07:04:02.513Z,18.50
2018-06-30T07:06:06.743Z,18.50
2018-06-30T07:08:11.321Z,18.60
2018-06-30T07:10:15.609Z,18.70
2018-06-30T07:12:19.645Z,18.70
2018-06-30T07:14:23.928Z,18.70
2018-06-30T07:16:27.914Z,18.70
2018-06-30T07:18:32.171Z,18.70
2018-06-30T07:20:36.397Z,18.80
2018-06-30T07:22:40.656Z,18.80
2018-06-30T07:24:45.020Z,18.90
2018-06-30T07:26:49.274Z,18.90
2018-06-30T07:28:53.618Z,18.80
2018-06-30T07:30:57.878Z,18.90
2018-06-30T07:33:02.166Z,18.90
2018-06-30T07:35:06.450Z,19.00
2018-06-30T07:37:11.029Z,19.00
2018-06-30T07:39:15.504Z,19.00
2018-06-30T07:41:20.077Z,18.90
2018-06-30T07:43:24.679Z,19.00
2018-06-30T07:47:32.982Z,19.10
2018-06-30T07:49:36.946Z,19.20
2018-06-30T07:51:41.230Z,19.20
2018-06-30T07:53:45.519Z,19.10
2018-06-30T07:55:50.246Z,19.10
2018-06-30T07:57:54.844Z,19.20
2018-06-30T07:59:59.191Z,19.30
2018-06-30T08:02:03.717Z,19.30
2018-06-30T08:04:08.418Z,19.30
2018-06-30T08:06:12.661Z,19.30
2018-06-30T08:08:17.138Z,19.40
2018-06-30T08:10:21.409Z,19.40
2018-06-30T08:12:25.874Z,19.40
2018-06-30T08:14:30.166Z,19.40
2018-06-30T08:16:34.502Z,19.40
2018-06-30T08:18:38.740Z,19.40
2018-06-30T08:20:43.017Z,19.40
2018-06-30T08:22:47.346Z,19.40
2018-06-30T08:24:51.954Z,19.50
2018-06-30T08:26:56.822Z,19.50
2018-06-30T08:29:01.440Z,19.50
2018-06-30T08:31:05.997Z,19.50
2018-06-30T08:33:10.901Z,19.60
2018-06-30T08:37:19.356Z,19.60
2018-06-30T08:39:23.629Z,19.80
2018-06-30T08:41:28.419Z,19.80
2018-06-30T08:43:32.861Z,19.80
2018-06-30T08:45:37.473Z,19.80
2018-06-30T08:47:41.741Z,19.80
2018-06-30T08:51:50.184Z,19.80
2018-06-30T08:53:54.518Z,19.80
2018-06-30T08:55:58.765Z,19.90
2018-06-30T08:58:03.353Z,20.00
2018-06-30T09:00:07.685Z,19.90
2018-06-30T09:02:11.902Z,19.90
2018-06-30T09:04:16.148Z,19.90
2018-06-30T09:06:20.780Z,19.90
2018-06-30T09:08:25.250Z,19.90
2018-06-30T09:10:29.517Z,20.00
2018-06-30T09:12:33.778Z,20.10
2018-06-30T09:14:38.026Z,20.00
2018-06-30T09:16:42.269Z,20.10
2018-06-30T09:18:47.175Z,20.10
2018-06-30T09:20:51.438Z,20.10
2018-06-30T09:22:56.117Z,20.20
2018-06-30T09:25:00.778Z,20.20
2018-06-30T09:27:05.684Z,20.30
2018-06-30T09:29:10.079Z,20.50
2018-06-30T09:31:14.425Z,20.50
2018-06-30T09:33:19.018Z,20.40
2018-06-30T09:35:23.269Z,20.40
2018-06-30T09:37:27.497Z,20.50
2018-06-30T09:39:32.185Z,20.50
2018-06-30T09:41:36.414Z,20.60
2018-06-30T09:43:40.706Z,20.60
2018-06-30T09:45:45.278Z,20.70
2018-06-30T09:47:49.848Z,20.70
2018-06-30T09:49:54.146Z,20.70
2018-06-30T09:51:58.476Z,20.90
2018-06-30T09:54:02.855Z,20.90
2018-06-30T09:56:07.130Z,20.90
2018-06-30T09:58:11.765Z,21.00
2018-06-30T10:02:25.989Z,21.10
2018-06-30T10:04:30.823Z,21.00
2018-06-30T10:06:35.380Z,21.00
2018-06-30T10:08:39.729Z,21.00
2018-06-30T10:10:44.346Z,21.00
2018-06-30T10:12:48.900Z,21.00
2018-06-30T10:14:53.473Z,21.40
2018-06-30T10:16:57.757Z,21.50
2018-06-30T10:21:06.710Z,21.50
2018-06-30T10:23:12.035Z,21.50
2018-06-30T10:27:20.174Z,21.70
2018-06-30T10:29:24.934Z,21.70
2018-06-30T10:31:29.213Z,21.70
2018-06-30T10:33:33.459Z,21.50
2018-06-30T10:35:37.760Z,21.60
2018-06-30T10:37:42.367Z,21.60
2018-06-30T10:39:46.957Z,21.80
2018-06-30T10:41:51.331Z,21.80
2018-06-30T10:43:55.930Z,21.90
2018-06-30T10:46:00.201Z,22.00
2018-06-30T10:48:05.158Z,22.00
2018-06-30T10:50:09.968Z,22.30
2018-06-30T10:52:14.214Z,22.40
2018-06-30T10:54:18.493Z,22.50
2018-06-30T10:56:23.086Z,22.60
2018-06-30T10:58:27.317Z,22.70
2018-06-30T11:00:32.114Z,22.80
2018-06-30T11:02:36.402Z,22.70
2018-06-30T11:04:40.666Z,22.60
2018-06-30T11:06:44.946Z,22.60
2018-06-30T11:08:49.241Z,22.40
2018-06-30T11:10:53.586Z,22.60
2018-06-30T11:12:58.082Z,22.70
2018-06-30T11:15:02.393Z,22.90
2018-06-30T11:17:06.957Z,23.00
2018-06-30T11:19:11.210Z,23.00
2018-06-30T11:21:15.477Z,23.00
2018-06-30T11:23:19.801Z,23.00
2018-06-30T11:25:24.368Z,23.00
2018-06-30T11:27:28.649Z,23.10
2018-06-30T11:29:33.260Z,22.80
2018-06-30T11:31:38.000Z,23.00
2018-06-30T11:33:42.469Z,23.40
2018-06-30T11:35:46.563Z,23.60
2018-06-30T11:37:50.814Z,24.20
2018-06-30T11:39:55.422Z,24.60
2018-06-30T11:42:00.003Z,25.10
2018-06-30T11:44:04.707Z,25.70
2018-06-30T11:46:08.745Z,26.70
2018-06-30T11:48:13.330Z,27.30
2018-06-30T11:50:18.239Z,27.30
2018-06-30T11:52:23.135Z,27.10
2018-06-30T11:54:27.368Z,26.80
2018-06-30T11:56:32.037Z,26.40
2018-06-30T11:58:36.301Z,25.70
2018-06-30T12:00:40.534Z,25.30
2018-06-30T12:02:44.769Z,25.10
2018-06-30T12:04:49.034Z,24.50
2018-06-30T12:06:53.397Z,24.30
2018-06-30T12:08:58.725Z,24.50
2018-06-30T12:11:02.981Z,25.60
2018-06-30T12:13:07.623Z,25.70
2018-06-30T12:15:11.853Z,26.20
2018-06-30T12:17:16.980Z,27.00
2018-06-30T12:19:22.105Z,27.80
2018-06-30T12:21:27.226Z,28.10
2018-06-30T12:23:32.278Z,28.50
2018-06-30T12:25:36.506Z,29.00
2018-06-30T12:27:40.749Z,29.10
2018-06-30T12:29:45.004Z,29.40
2018-06-30T12:31:49.606Z,28.50
2018-06-30T12:33:54.181Z,28.10
2018-06-30T12:35:58.444Z,27.40
2018-06-30T12:38:03.530Z,27.10
2018-06-30T12:40:08.790Z,26.50
2018-06-30T12:42:13.893Z,25.70
2018-06-30T12:44:18.786Z,25.20
2018-06-30T12:46:23.031Z,25.00
2018-06-30T12:50:31.533Z,25.10
2018-06-30T12:52:35.808Z,24.90
2018-06-30T12:54:40.234Z,24.50
2018-06-30T12:58:48.747Z,25.00
2018-06-30T13:00:53.368Z,26.10
2018-06-30T13:02:57.945Z,27.00
2018-06-30T13:05:03.125Z,28.10
2018-06-30T13:07:08.214Z,28.60
2018-06-30T13:09:13.711Z,28.80
2018-06-30T13:11:18.642Z,29.50
2018-06-30T13:13:23.051Z,29.20
2018-06-30T13:15:27.909Z,29.50
2018-06-30T13:17:31.983Z,30.50
2018-06-30T13:19:36.255Z,30.40
2018-06-30T13:21:41.440Z,29.50
2018-06-30T13:23:46.215Z,27.90
2018-06-30T13:25:50.999Z,27.50
2018-06-30T13:27:55.797Z,28.40
2018-06-30T13:30:00.577Z,28.70
2018-06-30T13:32:05.854Z,28.90
2018-06-30T13:34:10.993Z,29.90
2018-06-30T13:36:15.241Z,30.70
2018-06-30T13:38:20.054Z,30.30
2018-06-30T13:40:24.805Z,29.20
2018-06-30T13:42:29.586Z,28.20
2018-06-30T13:44:34.376Z,27.60
2018-06-30T13:46:39.149Z,27.60
2018-06-30T13:50:48.502Z,28.20
2018-06-30T13:52:53.403Z,27.70
2018-06-30T13:54:58.532Z,27.40
2018-06-30T13:57:03.362Z,26.70
2018-06-30T13:59:07.913Z,26.40
2018-06-30T14:01:12.682Z,27.50
2018-06-30T14:03:17.002Z,28.90
2018-06-30T14:05:21.961Z,30.00
2018-06-30T14:07:26.777Z,30.70
2018-06-30T14:09:31.922Z,31.00
2018-06-30T14:11:36.498Z,31.10
2018-06-30T14:13:41.301Z,31.10
2018-06-30T14:15:45.589Z,31.10
2018-06-30T14:17:50.171Z,31.70
2018-06-30T14:19:54.433Z,30.90
2018-06-30T14:21:58.411Z,31.20
2018-06-30T14:24:02.645Z,32.30
2018-06-30T14:26:06.933Z,32.60
2018-06-30T14:28:11.501Z,31.70
2018-06-30T14:30:15.742Z,31.30
2018-06-30T14:32:21.097Z,32.20
2018-06-30T14:34:25.405Z,31.70
2018-06-30T14:36:29.731Z,31.60
2018-06-30T14:38:33.939Z,31.20
2018-06-30T14:40:38.218Z,31.10
2018-06-30T14:42:42.572Z,31.20
2018-06-30T14:44:47.094Z,31.00
2018-06-30T14:46:51.092Z,31.20
2018-06-30T14:48:55.719Z,31.80
2018-06-30T14:51:00.285Z,33.00
2018-06-30T14:53:04.538Z,33.60
2018-06-30T14:55:09.269Z,33.00
2018-06-30T14:57:13.650Z,32.00
2018-06-30T14:59:18.573Z,30.20
2018-06-30T15:01:22.807Z,30.00
2018-06-30T15:03:27.638Z,30.90
2018-06-30T15:05:32.419Z,31.10
2018-06-30T15:07:37.934Z,31.10
2018-06-30T15:09:42.747Z,30.50
2018-06-30T15:11:47.485Z,31.50
2018-06-30T15:13:52.825Z,32.10
2018-06-30T15:15:57.840Z,32.50
2018-06-30T15:18:02.635Z,32.80
2018-06-30T15:20:07.584Z,32.90
2018-06-30T15:22:12.383Z,33.10
2018-06-30T15:24:17.677Z,33.00
2018-06-30T15:26:22.483Z,31.90
2018-06-30T15:28:27.281Z,31.50
2018-06-30T15:30:32.173Z,31.40
2018-06-30T15:32:37.437Z,31.70
2018-06-30T15:34:42.369Z,32.00
2018-06-30T15:36:47.552Z,32.20
2018-06-30T15:38:51.800Z,32.50
2018-06-30T15:40:56.917Z,32.70
2018-06-30T15:43:01.734Z,31.30
2018-06-30T15:45:07.728Z,30.10
2018-06-30T15:47:12.902Z,29.40
2018-06-30T15:49:17.481Z,29.40
2018-06-30T15:51:22.269Z,30.10
2018-06-30T15:53:27.045Z,30.80
2018-06-30T15:55:31.830Z,31.50
2018-06-30T15:57:36.658Z,31.50
2018-06-30T15:59:41.742Z,31.70
2018-06-30T16:01:46.526Z,32.40
2018-06-30T16:03:51.330Z,32.90
2018-06-30T16:05:56.474Z,33.10
2018-06-30T16:08:01.596Z,31.60
2018-06-30T16:10:06.604Z,31.50
2018-06-30T16:12:11.460Z,31.30
2018-06-30T16:14:16.231Z,30.40
2018-06-30T16:16:21.664Z,30.00
2018-06-30T16:18:26.649Z,30.10
2018-06-30T16:22:36.221Z,31.10
2018-06-30T16:24:41.738Z,31.60
2018-06-30T16:26:47.026Z,30.90
2018-06-30T16:28:52.177Z,30.50
2018-06-30T16:30:57.126Z,31.10
2018-06-30T16:33:02.032Z,31.80
2018-06-30T16:35:07.129Z,32.60
2018-06-30T16:37:12.694Z,33.00
2018-06-30T16:39:17.518Z,33.40
2018-06-30T16:41:22.542Z,31.60
2018-06-30T16:43:26.791Z,31.40
2018-06-30T16:45:31.677Z,31.80
2018-06-30T16:47:36.270Z,29.90
2018-06-30T16:49:41.090Z,30.00
2018-06-30T16:51:45.416Z,30.40
2018-06-30T16:53:50.225Z,30.80
2018-06-30T16:55:54.466Z,30.90
2018-06-30T17:00:02.617Z,31.80
2018-06-30T17:02:07.545Z,32.00
2018-06-30T17:04:12.312Z,32.20
2018-06-30T17:06:16.358Z,32.40
2018-06-30T17:08:21.138Z,32.60
2018-06-30T17:10:25.730Z,32.50
2018-06-30T17:12:29.986Z,32.60
2018-06-30T17:14:34.246Z,32.80
2018-06-30T17:16:38.231Z,32.60
2018-06-30T17:18:42.482Z,31.90
2018-06-30T17:20:47.163Z,31.40
2018-06-30T17:22:51.658Z,31.30
2018-06-30T17:24:55.618Z,30.90
2018-06-30T17:27:00.202Z,31.00
2018-06-30T17:29:05.114Z,31.50
2018-06-30T17:31:09.674Z,31.20
2018-06-30T17:33:13.997Z,31.00
2018-06-30T17:35:19.357Z,31.50
2018-06-30T17:37:23.666Z,32.00
2018-06-30T17:39:27.925Z,31.70
2018-06-30T17:41:32.142Z,30.80
2018-06-30T17:43:36.116Z,30.70
2018-06-30T17:45:40.930Z,30.60
2018-06-30T17:47:45.626Z,30.50
2018-06-30T17:49:50.124Z,30.80
2018-06-30T17:51:55.068Z,30.10
2018-06-30T17:53:59.381Z,29.80
2018-06-30T17:56:03.671Z,29.80
2018-06-30T17:58:08.629Z,30.30
2018-06-30T18:00:12.869Z,30.50
2018-06-30T18:02:16.855Z,30.40
2018-06-30T18:04:21.090Z,29.70
2018-06-30T18:06:25.753Z,29.30
2018-06-30T18:08:30.049Z,29.30
2018-06-30T18:10:34.281Z,28.90
2018-06-30T18:12:38.769Z,29.20
2018-06-30T18:14:43.385Z,29.40
2018-06-30T18:16:48.165Z,29.40
2018-06-30T18:18:52.465Z,28.70
2018-06-30T18:20:56.755Z,29.20
2018-06-30T18:25:05.779Z,29.60
2018-06-30T18:27:10.190Z,27.80
2018-06-30T18:29:14.423Z,28.00
2018-06-30T18:31:19.005Z,28.20
2018-06-30T18:33:23.261Z,27.70
2018-06-30T18:35:27.522Z,27.80
2018-06-30T18:37:31.837Z,27.60
2018-06-30T18:39:36.174Z,27.50
2018-06-30T18:41:40.414Z,27.50
2018-06-30T18:43:44.683Z,27.10
2018-06-30T18:45:48.974Z,27.30
2018-06-30T18:47:53.222Z,27.80
2018-06-30T18:49:57.460Z,28.00
2018-06-30T18:52:01.958Z,27.90
2018-06-30T18:54:07.053Z,27.80
2018-06-30T18:56:11.344Z,27.70
2018-06-30T18:58:16.247Z,27.70
2018-06-30T19:00:20.918Z,27.30
2018-06-30T19:02:25.710Z,26.90
2018-06-30T19:04:30.323Z,27.20
2018-06-30T19:08:38.884Z,26.50
2018-06-30T19:10:42.847Z,26.60
2018-06-30T19:14:51.417Z,26.80
2018-06-30T19:16:55.961Z,26.70
2018-06-30T19:19:00.262Z,26.10
2018-06-30T19:21:04.876Z,26.10
2018-06-30T19:23:09.512Z,26.00
2018-06-30T19:25:14.322Z,26.00
2018-06-30T19:27:18.545Z,25.90
2018-06-30T19:29:23.006Z,25.80
2018-06-30T19:33:31.493Z,25.60
2018-06-30T19:35:35.742Z,25.10
2018-06-30T19:37:40.427Z,24.70
2018-06-30T19:39:44.690Z,24.40
2018-06-30T19:41:49.258Z,23.80
2018-06-30T19:43:53.885Z,23.50
2018-06-30T19:45:58.145Z,23.40
2018-06-30T19:50:06.618Z,23.00
2018-06-30T19:52:10.609Z,22.70
2018-06-30T19:54:14.866Z,22.40
2018-06-30T19:56:19.122Z,22.20
2018-06-30T19:58:23.112Z,22.30
2018-06-30T20:00:27.560Z,22.30
2018-06-30T20:02:31.856Z,22.20
2018-06-30T20:04:36.321Z,22.00
2018-06-30T20:06:40.279Z,21.80
2018-06-30T20:08:44.253Z,21.90
2018-06-30T20:10:48.547Z,21.60
2018-06-30T20:12:52.987Z,21.70
2018-06-30T20:14:57.545Z,21.50
2018-06-30T20:17:01.791Z,21.60
2018-06-30T20:19:06.074Z,21.50
2018-06-30T20:21:10.026Z,21.60
2018-06-30T20:23:14.917Z,21.50
2018-06-30T20:25:19.225Z,21.20
2018-06-30T20:27:23.238Z,21.20
2018-06-30T20:29:27.643Z,21.10
2018-06-30T20:31:32.197Z,21.10
2018-06-30T20:33:37.091Z,21.20
2018-06-30T20:35:41.711Z,21.10
2018-06-30T20:37:45.928Z,21.20
2018-06-30T20:39:50.569Z,21.10
2018-06-30T20:41:54.570Z,21.00
2018-06-30T20:43:58.844Z,20.80
2018-06-30T20:46:03.208Z,20.80
2018-06-30T20:48:07.646Z,20.90
2018-06-30T20:50:11.883Z,20.80
2018-06-30T20:52:16.453Z,20.60
2018-06-30T20:54:20.842Z,20.70
2018-06-30T20:56:25.135Z,20.70
2018-06-30T20:58:29.702Z,20.60
2018-06-30T21:00:34.337Z,20.70
2018-06-30T21:04:42.494Z,20.50
2018-06-30T21:06:46.830Z,20.40
2018-06-30T21:08:51.394Z,20.30
2018-06-30T21:13:00.623Z,20.50
2018-06-30T21:15:05.035Z,20.60
2018-06-30T21:17:09.592Z,20.70
2018-06-30T21:19:14.514Z,20.70
2018-06-30T21:21:18.746Z,20.50
2018-06-30T21:23:23.074Z,20.40
2018-06-30T21:25:27.761Z,20.10
2018-06-30T21:27:32.676Z,20.20
2018-06-30T21:29:37.599Z,20.30
2018-06-30T21:31:41.940Z,20.30
2018-06-30T21:33:46.289Z,20.30
2018-06-30T21:35:51.218Z,20.40
2018-06-30T21:37:55.428Z,20.30
2018-06-30T21:39:59.845Z,20.20
2018-06-30T21:44:09.527Z,19.70
2018-06-30T21:46:14.118Z,19.80
2018-06-30T21:48:18.909Z,19.70
2018-06-30T21:50:23.494Z,19.70
2018-06-30T21:52:28.061Z,19.60
2018-06-30T21:54:32.087Z,19.70
2018-06-30T21:56:37.125Z,19.50
2018-06-30T21:58:41.441Z,19.50
2018-06-30T22:00:53.357Z,19.50
2018-06-30T22:02:57.342Z,19.60
2018-06-30T22:05:01.710Z,19.30
2018-06-30T22:07:06.065Z,19.30
2018-06-30T22:09:10.982Z,19.40
2018-06-30T22:11:15.446Z,19.40
2018-06-30T22:13:20.234Z,19.50
2018-06-30T22:15:25.134Z,19.70
2018-06-30T22:17:29.968Z,19.70
2018-06-30T22:21:38.140Z,19.60
2018-06-30T22:23:42.461Z,19.50
2018-06-30T22:25:46.758Z,19.30
2018-06-30T22:27:50.731Z,19.40
2018-06-30T22:29:55.258Z,19.30
2018-06-30T22:31:59.501Z,19.40
2018-06-30T22:34:03.758Z,19.20
2018-06-30T22:36:08.113Z,19.00
2018-06-30T22:38:12.750Z,18.90
2018-06-30T22:40:18.941Z,19.10
2018-06-30T22:42:23.229Z,19.10
2018-06-30T22:44:27.197Z,19.00
2018-06-30T22:46:31.497Z,19.10
2018-06-30T22:48:35.837Z,19.00
2018-06-30T22:50:40.182Z,19.20
2018-06-30T22:52:44.482Z,19.20
2018-06-30T22:54:48.754Z,19.10
2018-06-30T22:56:53.401Z,19.20
2018-06-30T22:58:57.705Z,19.20
2018-06-30T23:01:01.925Z,19.10
2018-06-30T23:03:09.049Z,19.00
2018-06-30T23:05:13.820Z,18.90
2018-06-30T23:07:18.019Z,19.00
2018-06-30T23:09:22.077Z,19.00
2018-06-30T23:11:26.761Z,19.00
2018-06-30T23:13:31.342Z,18.90
2018-06-30T23:15:35.648Z,18.80
2018-06-30T23:17:39.640Z,18.70
2018-06-30T23:19:44.583Z,18.70
2018-06-30T23:23:53.080Z,18.60
2018-06-30T23:25:57.328Z,18.60
2018-06-30T23:28:01.849Z,18.50
2018-06-30T23:30:06.562Z,18.60
2018-06-30T23:32:10.851Z,18.60
2018-06-30T23:34:15.122Z,18.40
2018-06-30T23:36:19.458Z,18.30
2018-06-30T23:38:23.730Z,18.30
2018-06-30T23:40:27.978Z,18.30
2018-06-30T23:42:32.598Z,18.20
2018-06-30T23:44:36.949Z,18.20
2018-06-30T23:46:41.209Z,18.30
2018-06-30T23:48:46.256Z,18.30
2018-06-30T23:50:50.266Z,18.30
2018-06-30T23:52:54.706Z,18.30
2018-06-30T23:54:59.201Z,18.30
2018-06-30T23:57:03.498Z,18.20
2018-06-30T23:59:07.754Z,18.00
